Time;durP1;ratioP1;P1;durP2;ratioP2;P2;SDS_P1;SDS_P2;PMS_P1;PMS_P2;Temp;Humidity;BMP_temperature;BMP_pressure;BME280_temperature;BME280_humidity;BME280_pressure;Samples;Min_cycle;Max_cycle;Signal;HPM_P1;HPM_P2
2023/06/30 00:02:42;;;;;;;8.73;3.75;;;22.00;99.90;;;;;;5051578;28;20044;-77
2023/06/30 00:05:47;;;;;;;5.22;3.10;;;21.90;99.90;;;;;;5052173;28;20048;-76
2023/06/30 00:08:51;;;;;;;6.93;3.63;;;21.80;99.90;;;;;;5051263;28;20044;-77
2023/06/30 00:11:56;;;;;;;7.18;3.95;;;21.70;99.90;;;;;;5051236;28;20510;-77
2023/06/30 00:15:00;;;;;;;6.53;3.58;;;21.60;99.90;;;;;;5051782;28;20064;-77
2023/06/30 00:18:05;;;;;;;5.85;3.53;;;21.60;99.90;;;;;;5038852;28;20040;-77
2023/06/30 00:21:09;;;;;;;11.13;3.78;;;21.50;99.90;;;;;;5051719;28;20048;-77
2023/06/30 00:24:13;;;;;;;6.00;3.20;;;21.40;99.90;;;;;;5050651;28;20044;-77
2023/06/30 00:27:17;;;;;;;5.55;3.50;;;21.30;99.90;;;;;;5051797;28;20048;-77
2023/06/30 00:30:22;;;;;;;7.78;3.58;;;21.30;99.90;;;;;;5039046;28;20052;-77
2023/06/30 00:33:27;;;;;;;7.13;3.15;;;21.10;99.90;;;;;;5050094;28;20048;-76
2023/06/30 00:36:31;;;;;;;4.68;3.40;;;21.10;99.90;;;;;;5051079;28;20040;-77
2023/06/30 00:39:37;;;;;;;5.70;3.08;;;21.10;99.90;;;;;;5051594;28;20044;-76
2023/06/30 00:42:41;;;;;;;7.28;3.80;;;21.10;99.90;;;;;;5049641;28;20048;-77
2023/06/30 00:45:45;;;;;;;5.95;3.65;;;21.10;99.90;;;;;;5051232;28;20059;-76
2023/06/30 00:48:50;;;;;;;5.72;3.50;;;21.10;99.90;;;;;;5039067;28;20526;-76
2023/06/30 00:51:54;;;;;;;7.18;3.72;;;21.00;99.90;;;;;;5045156;28;20052;-77
2023/06/30 00:54:58;;;;;;;5.20;3.65;;;21.00;99.90;;;;;;5030900;28;20041;-76
2023/06/30 00:58:03;;;;;;;8.23;3.38;;;21.00;99.90;;;;;;5027492;28;20044;-76
2023/06/30 01:01:25;;;;;;;9.73;3.88;;;21.00;99.90;;;;;;5030096;28;20052;-77
2023/06/30 01:04:35;;;;;;;6.20;3.42;;;21.00;99.90;;;;;;5030734;28;20048;-77
2023/06/30 01:08:01;;;;;;;6.90;3.40;;;21.00;99.90;;;;;;5030733;28;20040;-76
2023/06/30 01:11:08;;;;;;;5.78;4.18;;;21.00;99.90;;;;;;5007257;28;20399;-76
2023/06/30 01:14:14;;;;;;;5.22;3.55;;;20.90;99.90;;;;;;5029480;28;20037;-77
2023/06/30 01:17:20;;;;;;;9.45;3.85;;;21.00;99.90;;;;;;5030884;28;20040;-76
2023/06/30 01:20:29;;;;;;;7.63;3.67;;;20.80;99.90;;;;;;5018351;28;20060;-77
2023/06/30 01:23:35;;;;;;;8.75;3.53;;;20.80;99.90;;;;;;5030525;28;20041;-77
2023/06/30 01:26:41;;;;;;;8.23;3.92;;;20.80;99.90;;;;;;5006859;28;20048;-77
2023/06/30 01:29:46;;;;;;;8.55;3.42;;;20.80;99.90;;;;;;5028621;28;20041;-76
2023/06/30 01:32:54;;;;;;;7.18;3.17;;;20.80;99.90;;;;;;5017787;28;20048;-76
2023/06/30 01:35:58;;;;;;;6.03;3.47;;;20.70;99.90;;;;;;5018496;28;20041;-76
2023/06/30 01:39:03;;;;;;;6.60;3.58;;;20.60;99.90;;;;;;5029872;28;20040;-76
2023/06/30 01:42:07;;;;;;;7.30;3.25;;;20.60;99.90;;;;;;5030097;28;20389;-76
2023/06/30 01:45:13;;;;;;;6.75;3.50;;;20.60;99.90;;;;;;5030121;28;20048;-76
2023/06/30 01:48:18;;;;;;;6.15;3.78;;;20.60;99.90;;;;;;5030422;28;20045;-76
2023/06/30 01:51:22;;;;;;;4.13;3.10;;;20.70;99.90;;;;;;5017734;28;20044;-76
2023/06/30 01:54:28;;;;;;;6.03;3.42;;;20.70;99.90;;;;;;5017650;28;20036;-76
2023/06/30 01:57:32;;;;;;;8.80;3.90;;;20.80;99.90;;;;;;5029170;28;20036;-77
2023/06/30 02:00:36;;;;;;;8.82;3.50;;;20.90;99.90;;;;;;5017966;28;20052;-77
2023/06/30 02:03:40;;;;;;;6.93;3.45;;;20.90;99.90;;;;;;5030000;28;20068;-77
2023/06/30 02:06:44;;;;;;;4.97;3.35;;;20.90;99.90;;;;;;5043950;28;20048;-77
2023/06/30 02:09:48;;;;;;;4.13;3.00;;;20.80;99.90;;;;;;5033406;28;20051;-77
2023/06/30 02:12:53;;;;;;;6.03;3.25;;;20.80;99.90;;;;;;5048882;28;20052;-77
2023/06/30 02:15:57;;;;;;;9.07;2.88;;;20.80;99.90;;;;;;5026338;28;20506;-77
2023/06/30 02:19:01;;;;;;;5.45;3.42;;;20.80;99.90;;;;;;5050239;28;20514;-77
2023/06/30 02:22:05;;;;;;;7.18;2.97;;;20.70;99.90;;;;;;5036935;28;20052;-77
2023/06/30 02:25:09;;;;;;;4.82;3.40;;;20.70;99.90;;;;;;5036961;28;20044;-77
2023/06/30 02:28:13;;;;;;;5.57;3.38;;;20.60;99.90;;;;;;5050118;28;20048;-76
2023/06/30 02:31:17;;;;;;;6.00;3.08;;;20.60;99.90;;;;;;5049342;28;20052;-77
2023/06/30 02:34:21;;;;;;;5.10;3.60;;;20.60;99.90;;;;;;5049695;28;20044;-77
2023/06/30 02:37:25;;;;;;;4.63;3.55;;;20.50;99.90;;;;;;5036924;28;20048;-77
2023/06/30 02:40:29;;;;;;;5.28;3.67;;;20.50;99.90;;;;;;5050635;28;20067;-76
2023/06/30 02:43:34;;;;;;;6.90;3.70;;;20.40;99.90;;;;;;5053086;28;20044;-77
2023/06/30 02:46:37;;;;;;;6.70;3.65;;;20.40;99.90;;;;;;5041120;28;20044;-76
2023/06/30 02:49:41;;;;;;;4.32;3.10;;;20.40;99.90;;;;;;5041161;28;20048;-77
2023/06/30 02:52:45;;;;;;;5.82;3.50;;;20.30;99.90;;;;;;5040807;28;20039;-77
2023/06/30 02:55:49;;;;;;;7.47;3.55;;;20.30;99.90;;;;;;5041272;28;20499;-76
2023/06/30 02:58:55;;;;;;;7.28;3.78;;;20.30;99.90;;;;;;5041445;28;20052;-76
2023/06/30 03:02:00;;;;;;;5.38;3.45;;;20.20;99.90;;;;;;5040893;28;20060;-76
2023/06/30 03:05:04;;;;;;;7.22;3.65;;;20.10;99.90;;;;;;5053135;28;20056;-76
2023/06/30 03:08:10;;;;;;;7.82;3.90;;;19.80;99.90;;;;;;5041081;28;20130;-76
2023/06/30 03:11:14;;;;;;;9.25;4.07;;;19.70;99.90;;;;;;5040421;28;20047;-76
2023/06/30 03:14:18;;;;;;;6.70;3.90;;;19.60;99.90;;;;;;5040356;28;20044;-76
2023/06/30 03:17:22;;;;;;;6.78;3.92;;;19.60;99.90;;;;;;5040611;28;20109;-76
2023/06/30 03:20:26;;;;;;;6.03;4.32;;;19.60;99.90;;;;;;5039366;28;20051;-76
2023/06/30 03:23:30;;;;;;;10.55;3.67;;;19.60;99.90;;;;;;5045036;28;20080;-77
2023/06/30 03:26:34;;;;;;;8.82;4.40;;;19.50;99.90;;;;;;5028800;28;20040;-77
2023/06/30 03:29:37;;;;;;;6.68;4.18;;;19.50;99.90;;;;;;5040498;28;20052;-77
2023/06/30 03:32:42;;;;;;;7.93;4.05;;;19.50;99.90;;;;;;5028383;28;20052;-77
2023/06/30 03:35:46;;;;;;;6.38;4.10;;;19.40;99.90;;;;;;5040229;28;20400;-77
2023/06/30 03:38:50;;;;;;;8.57;4.45;;;19.50;99.90;;;;;;5040161;28;20044;-77
2023/06/30 03:41:54;;;;;;;5.40;3.88;;;19.50;99.90;;;;;;5038927;28;20051;-77
2023/06/30 03:45:00;;;;;;;5.90;4.00;;;19.50;99.90;;;;;;5040328;28;20060;-77
2023/06/30 03:48:04;;;;;;;4.45;3.45;;;19.50;99.90;;;;;;5040037;28;20044;-76
2023/06/30 03:51:09;;;;;;;7.00;3.50;;;19.60;99.90;;;;;;5039937;28;20044;-77
2023/06/30 03:54:13;;;;;;;10.60;4.10;;;19.70;99.90;;;;;;5051511;28;20036;-77
2023/06/30 03:57:17;;;;;;;6.25;3.72;;;19.70;99.90;;;;;;5039728;28;20387;-77
2023/06/30 04:00:21;;;;;;;6.45;3.72;;;19.70;99.90;;;;;;5039962;28;20274;-77
2023/06/30 04:03:25;;;;;;;8.75;4.03;;;19.70;99.90;;;;;;5051254;28;20056;-76
2023/06/30 04:06:30;;;;;;;6.40;4.07;;;19.80;99.90;;;;;;5052087;28;20043;-77
2023/06/30 04:09:35;;;;;;;8.90;3.88;;;19.80;99.90;;;;;;5051793;28;20052;-77
2023/06/30 04:12:39;;;;;;;5.53;3.83;;;19.80;99.90;;;;;;5051627;28;20526;-77
2023/06/30 04:15:43;;;;;;;5.50;3.80;;;19.80;99.90;;;;;;5039903;28;20051;-77
2023/06/30 04:18:47;;;;;;;8.13;3.72;;;19.70;99.90;;;;;;5051934;28;20491;-77
2023/06/30 04:21:51;;;;;;;5.72;3.97;;;19.70;99.90;;;;;;5051211;28;20056;-77
2023/06/30 04:24:56;;;;;;;7.65;4.15;;;19.70;99.90;;;;;;5051624;28;20052;-77
2023/06/30 04:28:00;;;;;;;11.52;4.25;;;19.80;99.90;;;;;;5051320;28;20048;-77
2023/06/30 04:31:04;;;;;;;8.30;3.83;;;19.80;99.90;;;;;;5051109;28;20587;-77
2023/06/30 04:34:08;;;;;;;7.85;3.92;;;19.90;99.90;;;;;;5038903;28;20059;-77
2023/06/30 04:37:13;;;;;;;5.95;3.80;;;20.20;99.90;;;;;;5049847;28;20047;-77
2023/06/30 04:40:16;;;;;;;10.30;3.60;;;20.20;99.90;;;;;;5032098;28;20052;-77
2023/06/30 04:43:21;;;;;;;32.63;4.82;;;20.50;99.90;;;;;;5031130;28;20052;-77
2023/06/30 04:46:25;;;;;;;17.35;4.63;;;20.50;99.90;;;;;;5031354;28;20400;-77
2023/06/30 04:49:29;;;;;;;21.15;5.07;;;20.50;99.90;;;;;;5029698;28;20044;-77
2023/06/30 04:52:33;;;;;;;50.15;6.95;;;20.50;99.90;;;;;;5029799;28;20113;-77
2023/06/30 04:55:37;;;;;;;34.15;5.43;;;20.50;99.90;;;;;;5030953;28;20052;-77
2023/06/30 04:58:41;;;;;;;8.95;3.67;;;21.00;99.90;;;;;;5030992;28;20056;-76
2023/06/30 05:01:45;;;;;;;5.97;3.60;;;20.90;99.90;;;;;;5030646;28;20060;-77
2023/06/30 05:04:49;;;;;;;11.88;3.22;;;20.80;99.90;;;;;;5045690;28;20044;-77
2023/06/30 05:07:52;;;;;;;11.80;4.45;;;20.90;99.90;;;;;;5050549;28;20032;-77
2023/06/30 05:10:56;;;;;;;9.55;3.90;;;20.80;99.90;;;;;;5050675;28;20072;-77
2023/06/30 05:14:00;;;;;;;5.93;4.05;;;20.90;99.90;;;;;;5050658;28;20498;-77
2023/06/30 05:17:04;;;;;;;6.55;3.80;;;21.00;99.90;;;;;;5051088;28;20040;-77
2023/06/30 05:20:09;;;;;;;6.35;3.45;;;20.90;99.90;;;;;;5049696;28;20048;-77
2023/06/30 05:23:12;;;;;;;9.52;4.35;;;21.30;99.90;;;;;;5050243;28;20044;-77
2023/06/30 05:26:16;;;;;;;6.07;3.95;;;21.50;99.90;;;;;;5038396;28;20036;-77
2023/06/30 05:29:20;;;;;;;13.05;3.83;;;22.20;99.90;;;;;;5050236;28;20040;-77
2023/06/30 05:32:24;;;;;;;10.70;3.60;;;23.20;99.90;;;;;;5050186;28;20040;-77
2023/06/30 05:35:28;;;;;;;7.68;3.65;;;24.20;99.90;;;;;;5050664;28;20048;-77
2023/06/30 05:38:32;;;;;;;5.30;3.45;;;25.00;99.90;;;;;;5038209;28;20039;-76
2023/06/30 05:41:36;;;;;;;10.82;3.70;;;25.30;99.90;;;;;;5050403;28;20056;-77
2023/06/30 05:44:40;;;;;;;15.98;6.35;;;23.80;99.90;;;;;;5038403;28;20391;-77
2023/06/30 05:47:44;;;;;;;9.00;4.53;;;24.20;99.90;;;;;;5051234;28;20051;-76
2023/06/30 05:50:48;;;;;;;7.82;3.50;;;23.70;99.90;;;;;;5045400;28;20052;-77
2023/06/30 05:53:52;;;;;;;10.00;3.75;;;24.00;99.90;;;;;;5046903;28;20052;-77
2023/06/30 05:56:56;;;;;;;8.88;3.20;;;24.10;99.90;;;;;;5038599;28;20598;-77
2023/06/30 06:00:00;;;;;;;6.57;3.33;;;24.60;99.90;;;;;;5050454;28;20052;-77
2023/06/30 06:03:04;;;;;;;10.20;4.20;;;26.00;99.90;;;;;;5049842;28;20043;-77
2023/06/30 06:06:08;;;;;;;11.20;3.92;;;26.90;99.90;;;;;;5051179;28;20052;-77
2023/06/30 06:09:13;;;;;;;7.55;3.90;;;27.60;99.90;;;;;;5038135;28;20053;-77
2023/06/30 06:12:16;;;;;;;7.50;4.00;;;28.00;99.90;;;;;;5049861;28;20048;-76
2023/06/30 06:15:21;;;;;;;6.63;3.45;;;27.70;99.90;;;;;;5051283;28;20040;-77
2023/06/30 06:18:25;;;;;;;8.23;3.80;;;27.30;99.90;;;;;;5055023;28;20048;-77
2023/06/30 06:21:29;;;;;;;5.85;2.95;;;27.40;99.90;;;;;;5054323;28;20054;-77
2023/06/30 06:24:33;;;;;;;7.60;3.35;;;27.10;99.90;;;;;;5042608;28;20060;-77
2023/06/30 06:27:37;;;;;;;7.43;3.25;;;27.70;99.90;;;;;;5054822;28;20048;-76
2023/06/30 06:30:42;;;;;;;5.93;3.42;;;28.00;99.90;;;;;;5042071;28;20399;-77
2023/06/30 06:33:46;;;;;;;12.48;3.17;;;27.90;99.90;;;;;;5054599;28;20048;-77
2023/06/30 06:36:50;;;;;;;5.22;3.33;;;27.60;99.90;;;;;;5053890;28;20487;-76
2023/06/30 06:39:54;;;;;;;6.85;3.20;;;27.00;99.90;;;;;;5054498;28;20487;-77
2023/06/30 06:42:57;;;;;;;8.10;3.60;;;26.60;99.90;;;;;;5029992;28;20596;-77
2023/06/30 06:46:04;;;;;;;7.57;3.47;;;26.10;99.90;;;;;;5036892;28;20048;-77
2023/06/30 06:49:09;;;;;;;8.38;3.72;;;25.80;99.90;;;;;;5034078;28;20525;-77
2023/06/30 06:52:13;;;;;;;6.47;3.83;;;25.20;99.90;;;;;;5041187;28;20662;-77
2023/06/30 06:55:17;;;;;;;8.80;3.75;;;25.00;99.90;;;;;;5041248;28;20052;-77
2023/06/30 06:58:22;;;;;;;10.10;4.13;;;25.10;99.90;;;;;;5011205;28;20048;-77
2023/06/30 07:01:25;;;;;;;7.22;4.25;;;24.70;99.90;;;;;;5033520;28;20096;-77
2023/06/30 07:04:29;;;;;;;7.25;4.57;;;24.40;99.90;;;;;;5033979;28;20612;-77
2023/06/30 07:07:34;;;;;;;7.80;4.00;;;24.20;99.90;;;;;;5052753;28;20060;-77
2023/06/30 07:10:39;;;;;;;6.88;3.90;;;24.30;99.90;;;;;;5033548;28;20392;-75
2023/06/30 07:13:43;;;;;;;9.60;3.88;;;24.40;99.90;;;;;;5036394;28;20410;-76
2023/06/30 07:16:48;;;;;;;6.65;3.80;;;24.90;99.90;;;;;;5029760;28;20044;-76
2023/06/30 07:19:52;;;;;;;8.73;3.95;;;25.40;99.90;;;;;;5051220;28;20403;-76
2023/06/30 07:22:57;;;;;;;6.00;3.80;;;25.00;99.90;;;;;;5052741;28;20036;-76
2023/06/30 07:26:00;;;;;;;6.32;3.80;;;24.70;99.90;;;;;;5040821;28;20064;-78
2023/06/30 07:29:04;;;;;;;6.10;3.60;;;25.20;99.90;;;;;;5047437;28;20032;-77
2023/06/30 07:32:09;;;;;;;5.60;3.20;;;25.40;99.90;;;;;;5039326;28;20048;-79
2023/06/30 07:35:13;;;;;;;5.38;3.13;;;25.90;99.90;;;;;;5020142;28;20064;-80
2023/06/30 07:38:17;;;;;;;4.75;3.22;;;26.10;99.90;;;;;;5032459;28;20041;-81
2023/06/30 07:41:21;;;;;;;7.15;3.65;;;25.90;99.90;;;;;;5032503;28;20044;-78
2023/06/30 07:44:25;;;;;;;6.70;3.47;;;25.80;99.90;;;;;;5028915;28;20044;-80
2023/06/30 07:47:30;;;;;;;8.10;3.55;;;25.80;99.90;;;;;;5048359;28;20047;-81
2023/06/30 07:50:35;;;;;;;4.10;3.17;;;25.90;99.90;;;;;;5039133;28;20052;-81
2023/06/30 07:53:38;;;;;;;6.97;3.75;;;26.20;99.90;;;;;;5039712;28;20392;-81
2023/06/30 07:56:44;;;;;;;7.82;3.65;;;26.00;99.90;;;;;;5050599;28;20040;-81
2023/06/30 07:59:48;;;;;;;11.88;4.22;;;26.20;99.90;;;;;;5030640;28;20040;-81
2023/06/30 08:02:51;;;;;;;17.08;4.05;;;26.00;99.90;;;;;;5031821;28;20056;-83
2023/06/30 08:05:57;;;;;;;16.27;4.05;;;26.30;99.90;;;;;;5035272;28;20048;-83
2023/06/30 08:09:01;;;;;;;7.60;3.60;;;26.50;99.90;;;;;;5037564;28;20040;-83
2023/06/30 08:12:06;;;;;;;7.80;4.07;;;26.80;99.90;;;;;;5036269;28;20040;-83
2023/06/30 08:15:10;;;;;;;14.82;4.80;;;26.80;99.90;;;;;;5039329;28;20507;-82
2023/06/30 08:18:14;;;;;;;8.77;5.07;;;26.80;99.90;;;;;;5051836;28;20047;-83
2023/06/30 08:21:18;;;;;;;12.75;6.25;;;26.70;99.90;;;;;;5050071;28;20583;-83
2023/06/30 08:24:22;;;;;;;13.07;7.32;;;26.50;99.90;;;;;;5039103;28;20407;-84
2023/06/30 08:27:26;;;;;;;13.55;6.93;;;26.50;99.90;;;;;;5022181;28;20060;-83
2023/06/30 08:30:29;;;;;;;12.82;7.05;;;26.50;99.90;;;;;;5031277;28;20052;-84
2023/06/30 08:33:33;;;;;;;18.52;7.68;;;26.40;99.90;;;;;;5033148;28;20129;-81
2023/06/30 08:36:37;;;;;;;11.35;7.95;;;26.20;99.90;;;;;;5020973;28;20052;-82
2023/06/30 08:39:41;;;;;;;10.45;6.70;;;25.90;99.90;;;;;;5026216;28;20044;-83
2023/06/30 08:42:48;;;;;;;9.80;6.40;;;25.20;99.90;;;;;;5035337;28;20048;-82
2023/06/30 08:45:56;;;;;;;13.63;5.93;;;24.80;99.90;;;;;;5032831;28;20048;-83
2023/06/30 08:49:00;;;;;;;10.27;5.00;;;24.50;99.90;;;;;;5032015;28;20049;-82
2023/06/30 08:52:05;;;;;;;9.20;5.97;;;24.30;99.90;;;;;;5018420;28;20056;-82
2023/06/30 08:55:10;;;;;;;19.42;6.38;;;24.10;99.90;;;;;;5034307;28;20051;-82
2023/06/30 08:58:14;;;;;;;14.20;6.03;;;23.90;99.90;;;;;;5032077;28;20388;-83
2023/06/30 09:01:19;;;;;;;33.75;7.47;;;23.70;99.90;;;;;;5043838;28;20048;-75
2023/06/30 09:04:23;;;;;;;25.23;7.78;;;22.70;99.90;;;;;;5041385;28;20044;-82
2023/06/30 09:07:30;;;;;;;21.55;8.18;;;22.00;99.90;;;;;;5043972;28;20400;-80
2023/06/30 09:10:37;;;;;;;20.65;7.95;;;21.50;99.90;;;;;;5041120;28;20048;-79
2023/06/30 09:13:43;;;;;;;17.38;8.02;;;21.00;99.90;;;;;;5027763;28;20052;-80
2023/06/30 10:05:19;;;;;;;15.32;5.70;;;19.30;99.90;;;;;;5048430;28;20056;-76
2023/06/30 10:08:44;;;;;;;11.98;5.78;;;19.50;99.90;;;;;;5048438;28;20753;-75
2023/06/30 10:11:53;;;;;;;11.02;5.10;;;19.70;99.90;;;;;;5049474;28;20052;-75
2023/06/30 10:14:57;;;;;;;11.68;5.50;;;19.90;99.90;;;;;;5049682;28;20040;-75
2023/06/30 10:18:03;;;;;;;7.80;4.82;;;20.30;99.90;;;;;;5043123;28;20036;-76
2023/06/30 10:21:26;;;;;;;7.90;4.90;;;20.70;99.90;;;;;;5037633;28;20047;-75
2023/06/30 10:25:08;;;;;;;8.57;4.45;;;21.10;99.90;;;;;;5038690;28;20044;-73
2023/06/30 10:28:34;;;;;;;7.60;4.60;;;21.60;99.90;;;;;;5035007;28;20056;-76
2023/06/30 10:31:39;;;;;;;8.32;4.20;;;22.30;99.90;;;;;;5038207;28;20290;-75
2023/06/30 10:34:43;;;;;;;7.53;4.60;;;23.10;99.90;;;;;;5028969;28;20047;-74
2023/06/30 10:37:48;;;;;;;7.82;4.95;;;24.30;99.90;;;;;;5044777;28;20047;-75
2023/06/30 10:41:16;;;;;;;8.48;4.50;;;25.70;99.90;;;;;;5045134;28;20044;-76
2023/06/30 10:44:35;;;;;;;7.95;4.20;;;26.90;99.90;;;;;;5042470;28;20041;-75
2023/06/30 10:47:39;;;;;;;8.07;5.07;;;27.60;99.90;;;;;;5042541;28;20233;-76
2023/06/30 10:50:44;;;;;;;7.68;4.88;;;28.10;99.90;;;;;;5041014;28;20049;-77
2023/06/30 10:53:49;;;;;;;7.70;5.03;;;28.80;99.90;;;;;;5047811;28;20056;-77
2023/06/30 10:57:14;;;;;;;7.72;4.68;;;29.50;99.90;;;;;;5039921;28;20048;-77
2023/06/30 11:00:31;;;;;;;11.55;4.65;;;30.40;99.90;;;;;;5037454;28;20036;-77
2023/06/30 11:07:27;;;;;;;9.77;5.13;;;29.90;99.90;;;;;;5038540;28;20044;-76
2023/06/30 11:10:46;;;;;;;8.25;4.57;;;26.80;99.90;;;;;;5049352;28;20052;-77
2023/06/30 11:14:27;;;;;;;8.10;5.03;;;26.40;99.90;;;;;;5047161;28;20048;-77
2023/06/30 11:17:53;;;;;;;9.00;5.40;;;26.70;99.90;;;;;;5039800;28;20052;-76
2023/06/30 11:21:03;;;;;;;9.05;5.25;;;27.40;99.90;;;;;;5049345;28;20099;-78
2023/06/30 11:24:14;;;;;;;8.35;5.18;;;27.00;99.90;;;;;;5051039;28;20048;-77
2023/06/30 11:27:19;;;;;;;11.32;5.07;;;26.90;99.90;;;;;;5043484;28;20676;-77
2023/06/30 11:30:23;;;;;;;10.48;5.20;;;27.30;99.90;;;;;;5046374;28;20044;-78
2023/06/30 11:34:05;;;;;;;8.35;5.13;;;28.90;99.90;;;;;;5049285;28;20052;-77
2023/06/30 11:37:29;;;;;;;8.50;4.65;;;31.40;99.90;;;;;;5040206;28;20044;-78
2023/06/30 11:40:34;;;;;;;8.45;5.18;;;32.40;99.90;;;;;;5048844;28;20060;-78
2023/06/30 11:43:57;;;;;;;11.40;5.85;;;33.70;99.90;;;;;;5042115;28;20048;-78
2023/06/30 11:47:01;;;;;;;11.23;6.60;;;33.50;99.90;;;;;;5039769;28;20056;-78
2023/06/30 11:50:07;;;;;;;7.85;4.78;;;30.60;99.90;;;;;;5047533;28;20060;-78
2023/06/30 11:53:11;;;;;;;8.73;5.28;;;31.90;99.90;;;;;;5045150;28;20059;-78
2023/06/30 11:56:38;;;;;;;8.45;5.60;;;31.30;99.90;;;;;;5039761;28;20495;-77
2023/06/30 11:59:41;;;;;;;12.23;5.40;;;30.60;99.90;;;;;;5048833;28;20518;-76
2023/06/30 12:02:48;;;;;;;9.18;5.07;;;29.80;99.90;;;;;;5039481;28;20044;-77
2023/06/30 12:05:56;;;;;;;9.45;5.30;;;29.50;99.90;;;;;;5033364;28;20048;-78
2023/06/30 12:09:02;;;;;;;9.43;6.00;;;29.10;99.90;;;;;;5044066;28;20048;-77
2023/06/30 12:12:07;;;;;;;8.88;6.00;;;27.90;99.90;;;;;;5046072;28;20039;-77
2023/06/30 12:15:13;;;;;;;10.40;6.05;;;27.80;99.90;;;;;;5046299;28;20403;-78
2023/06/30 12:18:39;;;;;;;11.23;6.07;;;27.70;99.90;;;;;;5042146;28;20585;-78
2023/06/30 12:22:00;;;;;;;10.60;6.07;;;28.20;99.90;;;;;;5021708;28;20058;-77
2023/06/30 12:25:08;;;;;;;11.57;6.20;;;27.70;99.90;;;;;;5042820;28;20396;-76
2023/06/30 12:28:31;;;;;;;8.23;6.03;;;26.70;99.90;;;;;;5047777;28;20040;-78
2023/06/30 12:31:35;;;;;;;11.27;7.05;;;26.90;99.90;;;;;;5032903;28;20379;-76
2023/06/30 12:34:39;;;;;;;8.18;6.07;;;26.40;99.90;;;;;;5042018;28;20495;-77
2023/06/30 12:38:04;;;;;;;9.05;6.28;;;25.50;99.90;;;;;;5044869;28;20535;-77
2023/06/30 12:44:50;;;;;;;10.27;6.57;;;24.40;99.90;;;;;;5040781;28;20040;-76
2023/06/30 12:48:13;;;;;;;11.20;7.35;;;24.70;99.90;;;;;;5041989;28;20047;-76
2023/06/30 12:51:18;;;;;;;9.65;5.85;;;25.10;99.90;;;;;;5045894;28;20040;-77
2023/06/30 12:54:23;;;;;;;13.43;7.50;;;24.60;99.90;;;;;;5029380;28;20056;-76
2023/06/30 12:57:26;;;;;;;10.23;5.88;;;24.80;99.90;;;;;;5034045;28;20035;-77
2023/06/30 13:00:30;;;;;;;9.32;6.32;;;25.40;99.90;;;;;;5049255;28;20047;-76
2023/06/30 13:03:34;;;;;;;11.27;6.70;;;25.20;99.90;;;;;;5047847;28;20051;-77
2023/06/30 13:06:40;;;;;;;9.70;5.55;;;25.90;99.90;;;;;;5048194;28;20044;-77
2023/06/30 13:09:47;;;;;;;7.90;5.45;;;26.10;99.90;;;;;;5043002;28;20051;-78
2023/06/30 13:13:11;;;;;;;10.85;6.55;;;27.00;99.90;;;;;;5047878;28;20052;-78
2023/06/30 13:16:34;;;;;;;10.65;6.35;;;27.80;99.90;;;;;;5047105;28;20036;-77
2023/06/30 13:19:57;;;;;;;11.25;5.78;;;28.60;99.90;;;;;;5037276;28;20112;-78
2023/06/30 13:23:03;;;;;;;12.00;6.53;;;28.90;99.90;;;;;;5041939;28;20043;-77
2023/06/30 13:26:08;;;;;;;9.63;5.90;;;27.40;99.90;;;;;;5040979;28;20094;-77
2023/06/30 13:29:31;;;;;;;11.68;5.47;;;28.50;99.90;;;;;;5038605;28;20049;-78
2023/06/30 13:32:35;;;;;;;8.52;6.07;;;29.60;99.90;;;;;;5043289;28;20040;-78
2023/06/30 13:35:39;;;;;;;9.88;6.00;;;30.10;99.90;;;;;;5050601;28;20499;-76
2023/06/30 13:39:03;;;;;;;8.57;6.18;;;29.50;99.90;;;;;;5049691;28;20044;-76
2023/06/30 13:42:44;;;;;;;11.25;6.57;;;28.50;99.90;;;;;;5049567;28;20044;-78
2023/06/30 13:46:07;;;;;;;9.82;6.50;;;28.00;99.90;;;;;;5044355;28;20048;-77
2023/06/30 13:49:30;;;;;;;11.43;6.32;;;26.80;99.90;;;;;;5046116;28;20047;-77
2023/06/30 13:56:35;;;;;;;10.65;6.82;;;25.10;99.90;;;;;;5041517;28;20033;-76
2023/06/30 14:03:40;;;;;;;10.52;6.85;;;25.20;99.90;;;;;;5045439;28;20396;-76
2023/06/30 14:06:44;;;;;;;14.70;6.82;;;25.20;99.90;;;;;;5035358;28;20048;-77
2023/06/30 14:10:07;;;;;;;11.95;7.28;;;25.30;99.90;;;;;;5046787;28;20056;-76
2023/06/30 14:13:12;;;;;;;9.65;6.13;;;25.20;99.90;;;;;;5044742;28;20334;-78
2023/06/30 14:16:15;;;;;;;11.77;6.70;;;24.90;99.90;;;;;;5030100;28;20037;-76
2023/06/30 14:28:49;;;;;;;16.00;8.95;;;21.70;99.90;;;;;;5045880;28;20040;-73
2023/06/30 14:31:53;;;;;;;17.05;9.18;;;21.30;99.90;;;;;;5032651;28;20048;-73
2023/06/30 14:44:27;;;;;;;16.92;9.68;;;21.10;99.90;;;;;;5039621;28;20041;-76
2023/06/30 14:47:31;;;;;;;20.13;11.50;;;20.80;99.90;;;;;;5047009;28;20055;-75
2023/06/30 15:06:11;;;;;;;18.08;10.15;;;20.40;99.90;;;;;;5107169;28;20035;-55
2023/06/30 15:09:15;;;;;;;19.88;10.07;;;20.40;99.90;;;;;;5101955;28;20063;-48
2023/06/30 15:12:19;;;;;;;17.02;10.23;;;20.60;99.90;;;;;;5102727;28;20035;-55
2023/06/30 15:15:23;;;;;;;15.13;9.77;;;21.00;99.90;;;;;;5100962;28;20035;-50
2023/06/30 15:18:28;;;;;;;12.30;8.98;;;21.20;99.90;;;;;;5103322;28;20043;-56
2023/06/30 15:21:32;;;;;;;16.73;8.55;;;21.40;99.90;;;;;;5101429;28;20047;-52
2023/06/30 15:24:36;;;;;;;11.25;7.43;;;21.90;99.90;;;;;;5102584;28;20050;-52
2023/06/30 15:27:40;;;;;;;9.98;6.53;;;22.30;99.90;;;;;;5091380;28;20413;-53
2023/06/30 15:30:44;;;;;;;13.05;7.15;;;22.80;99.90;;;;;;5098766;28;20036;-52
2023/06/30 15:33:48;;;;;;;9.38;5.85;;;23.40;99.90;;;;;;5104616;28;20398;-55
2023/06/30 15:36:52;;;;;;;9.35;6.47;;;23.80;99.90;;;;;;5094618;28;20040;-51
2023/06/30 15:39:56;;;;;;;10.82;5.85;;;23.90;99.90;;;;;;5104107;28;20044;-49
2023/06/30 15:43:00;;;;;;;9.18;6.40;;;24.00;99.90;;;;;;5102631;28;20047;-49
2023/06/30 15:46:04;;;;;;;8.63;5.97;;;24.20;99.90;;;;;;5106340;28;20035;-54
2023/06/30 15:49:08;;;;;;;9.13;6.05;;;24.30;99.90;;;;;;5101207;28;20043;-54
2023/06/30 15:52:12;;;;;;;9.27;6.38;;;24.60;99.90;;;;;;5103283;28;20039;-53
2023/06/30 15:55:16;;;;;;;10.15;5.85;;;24.50;99.90;;;;;;5100343;28;20486;-54
2023/06/30 15:58:20;;;;;;;9.90;5.88;;;24.60;99.90;;;;;;5100287;28;20410;-52
2023/06/30 16:01:24;;;;;;;9.00;5.90;;;24.70;99.90;;;;;;5084052;28;20040;-50
2023/06/30 16:04:32;;;;;;;7.85;5.80;;;24.80;99.90;;;;;;5079929;28;20080;-55
2023/06/30 16:07:36;;;;;;;10.25;6.00;;;25.20;99.90;;;;;;5087663;28;20552;-56
2023/06/30 16:10:40;;;;;;;13.38;6.72;;;25.00;99.90;;;;;;5083312;28;20043;-54
2023/06/30 16:13:44;;;;;;;11.00;6.40;;;25.00;99.90;;;;;;5089037;28;20038;-52
2023/06/30 16:16:48;;;;;;;11.93;6.90;;;24.50;99.90;;;;;;5082156;28;20059;-52
2023/06/30 16:19:52;;;;;;;12.43;6.82;;;24.50;99.90;;;;;;5076566;28;20521;-51
2023/06/30 16:22:56;;;;;;;9.70;6.63;;;24.60;99.90;;;;;;5084364;28;20051;-54
2023/06/30 16:26:00;;;;;;;10.35;6.72;;;24.80;99.90;;;;;;5082230;28;20040;-49
2023/06/30 16:29:04;;;;;;;11.43;6.70;;;24.80;99.90;;;;;;5078171;28;20051;-51
2023/06/30 16:32:08;;;;;;;10.82;7.10;;;24.60;99.90;;;;;;5089635;28;20043;-51
2023/06/30 16:35:12;;;;;;;10.68;6.75;;;24.00;99.90;;;;;;5091867;28;20063;-52
2023/06/30 16:38:16;;;;;;;12.18;6.70;;;24.20;99.90;;;;;;5084224;28;20059;-54
2023/06/30 16:41:20;;;;;;;18.98;8.43;;;24.00;99.90;;;;;;5084212;28;20051;-49
2023/06/30 16:44:27;;;;;;;10.73;6.90;;;24.40;99.90;;;;;;5071843;28;20056;-49
2023/06/30 16:47:31;;;;;;;13.00;6.57;;;24.30;99.90;;;;;;5072077;28;20541;-50
2023/06/30 16:50:35;;;;;;;11.82;6.68;;;24.20;99.90;;;;;;5084909;22;20044;-55
2023/06/30 16:53:39;;;;;;;11.27;6.68;;;23.90;99.90;;;;;;5039024;28;20045;-52
2023/06/30 16:56:43;;;;;;;10.70;6.90;;;23.80;99.90;;;;;;5032396;28;20691;-54
2023/06/30 16:59:47;;;;;;;10.18;6.95;;;23.60;99.90;;;;;;5032463;28;20361;-55
2023/06/30 17:02:51;;;;;;;11.70;6.95;;;23.60;99.90;;;;;;5026972;28;20531;-52
2023/06/30 17:05:56;;;;;;;12.50;7.32;;;23.50;99.90;;;;;;5027292;28;20065;-55
2023/06/30 17:08:59;;;;;;;12.48;7.13;;;23.50;99.90;;;;;;5037401;28;20052;-56
2023/06/30 17:12:04;;;;;;;12.02;7.38;;;23.40;99.90;;;;;;5024874;28;20649;-53
2023/06/30 17:15:09;;;;;;;11.00;7.50;;;23.30;99.90;;;;;;5034236;28;20038;-53
2023/06/30 17:18:13;;;;;;;11.57;7.50;;;23.20;99.90;;;;;;5039791;28;20053;-53
2023/06/30 17:21:17;;;;;;;14.55;7.95;;;23.10;99.90;;;;;;5025063;28;20056;-54
2023/06/30 17:24:22;;;;;;;14.43;7.32;;;23.00;99.90;;;;;;5040937;28;20044;-52
2023/06/30 17:27:25;;;;;;;14.75;8.55;;;22.90;99.90;;;;;;5022018;28;20055;-53
2023/06/30 17:30:29;;;;;;;13.50;7.85;;;22.90;99.90;;;;;;5032333;28;20044;-51
2023/06/30 17:33:33;;;;;;;14.50;7.72;;;22.80;99.90;;;;;;5023873;28;20052;-54
2023/06/30 17:36:38;;;;;;;11.65;7.57;;;22.50;99.90;;;;;;5036012;28;20040;-52
2023/06/30 17:39:41;;;;;;;14.32;7.43;;;22.30;99.90;;;;;;5034912;28;20783;-54
2023/06/30 17:42:45;;;;;;;13.60;8.23;;;22.30;99.90;;;;;;5037719;28;20040;-54
2023/06/30 17:45:49;;;;;;;13.10;7.55;;;22.30;99.90;;;;;;5029920;28;20044;-56